Time;durP1;ratioP1;P1;durP2;ratioP2;P2;SDS_P1;SDS_P2;PMS_P1;PMS_P2;Temp;Humidity;BMP_temperature;BMP_pressure;BME280_temperature;BME280_humidity;BME280_pressure;Samples;Min_cycle;Max_cycle;Signal;HPM_P1;HPM_P2
2021/07/11 00:00:19;;;;;;;0.93;0.90;;;20.10;1.00;;;;;;5035338;28;20494;-86
2021/07/11 00:02:47;;;;;;;1.53;1.00;;;20.00;1.00;;;;;;5059160;28;21021;-86
2021/07/11 00:05:19;;;;;;;0.87;0.87;;;20.10;1.00;;;;;;5032047;28;20487;-84
2021/07/11 00:07:47;;;;;;;0.90;0.87;;;20.10;1.00;;;;;;5033455;28;20948;-80
2021/07/11 00:10:16;;;;;;;1.00;0.90;;;20.10;1.00;;;;;;5034191;28;20514;-81
2021/07/11 00:12:47;;;;;;;1.10;1.00;;;20.00;1.00;;;;;;5034524;28;20545;-83
2021/07/11 00:15:18;;;;;;;0.80;0.80;;;19.90;1.00;;;;;;5016550;28;20893;-82
2021/07/11 00:17:48;;;;;;;1.30;1.20;;;20.00;1.00;;;;;;5018463;28;20414;-83
2021/07/11 00:20:17;;;;;;;0.97;0.90;;;20.00;1.00;;;;;;5033925;28;20449;-83
2021/07/11 00:22:46;;;;;;;1.00;0.90;;;19.90;1.00;;;;;;5034596;28;20480;-83
2021/07/11 00:25:14;;;;;;;1.20;1.10;;;20.00;1.00;;;;;;5034362;28;20480;-82
2021/07/11 00:27:45;;;;;;;1.40;1.30;;;19.90;1.00;;;;;;5036080;28;20444;-87
2021/07/11 00:30:15;;;;;;;3.70;1.63;;;20.00;1.00;;;;;;5015408;28;20440;-87
2021/07/11 00:32:44;;;;;;;1.20;1.10;;;19.90;1.00;;;;;;5015275;28;21012;-87
2021/07/11 00:35:12;;;;;;;0.90;0.90;;;19.90;1.00;;;;;;5030082;28;20544;-86
2021/07/11 00:37:41;;;;;;;0.83;0.83;;;20.00;1.00;;;;;;5034981;28;20440;-87
2021/07/11 00:40:12;;;;;;;1.13;1.03;;;20.00;1.00;;;;;;5034025;28;20445;-86
2021/07/11 00:42:41;;;;;;;1.40;1.30;;;19.90;1.00;;;;;;5021960;28;20544;-86
2021/07/11 00:45:12;;;;;;;0.97;0.87;;;20.00;1.00;;;;;;5031432;28;20460;-85
2021/07/11 00:47:42;;;;;;;1.20;1.10;;;20.10;1.00;;;;;;5031440;28;20448;-84
2021/07/11 00:50:18;;;;;;;1.67;1.10;;;20.10;1.00;;;;;;5032506;28;20441;-83
2021/07/11 00:52:46;;;;;;;1.00;0.90;;;20.10;1.00;;;;;;5018620;28;20451;-83
2021/07/11 00:55:14;;;;;;;1.10;1.00;;;20.10;1.00;;;;;;5032698;28;20465;-84
2021/07/11 00:57:43;;;;;;;3.50;1.10;;;20.00;1.00;;;;;;5029447;28;20452;-84
2021/07/11 01:00:13;;;;;;;1.00;1.00;;;19.90;1.00;;;;;;5027551;28;20511;-84
2021/07/11 01:02:48;;;;;;;1.17;1.03;;;19.90;1.00;;;;;;5036627;28;21066;-86
2021/07/11 01:05:17;;;;;;;1.60;0.90;;;20.00;1.00;;;;;;5021777;28;21024;-86
2021/07/11 01:07:50;;;;;;;3.63;1.20;;;19.90;1.00;;;;;;5033375;28;20452;-86
2021/07/11 01:10:25;;;;;;;1.40;1.10;;;19.80;1.00;;;;;;5033391;28;20452;-85
2021/07/11 01:12:55;;;;;;;1.10;0.90;;;19.80;1.00;;;;;;5033608;28;20448;-85
2021/07/11 01:15:26;;;;;;;1.17;1.07;;;19.80;1.00;;;;;;5027524;28;20527;-85
2021/07/11 01:17:59;;;;;;;1.20;1.10;;;19.60;1.00;;;;;;5013829;28;20476;-86
2021/07/11 01:20:37;;;;;;;0.90;0.90;;;19.50;93.20;;;;;;5029010;28;20460;-85
2021/07/11 01:23:09;;;;;;;1.47;1.37;;;19.60;99.90;;;;;;5032835;28;20533;-86
2021/07/11 01:25:42;;;;;;;1.10;1.00;;;19.60;73.60;;;;;;5033048;28;20460;-86
2021/07/11 01:28:14;;;;;;;1.57;1.20;;;19.60;99.90;;;;;;5022774;28;20457;-85
2021/07/11 01:30:43;;;;;;;1.53;0.90;;;19.70;98.00;;;;;;5012362;28;21068;-86
2021/07/11 01:33:12;;;;;;;1.07;1.00;;;19.60;99.90;;;;;;5013489;28;20450;-85
2021/07/11 01:35:42;;;;;;;1.13;1.03;;;19.60;99.90;;;;;;5027851;28;20436;-85
2021/07/11 01:38:10;;;;;;;1.20;1.10;;;19.60;99.90;;;;;;5031907;28;20457;-85
2021/07/11 01:40:42;;;;;;;1.33;1.00;;;19.70;99.90;;;;;;5031100;28;20515;-85
2021/07/11 01:43:11;;;;;;;1.20;1.10;;;19.50;99.90;;;;;;5028775;28;20454;-84
2021/07/11 01:45:41;;;;;;;1.00;1.00;;;19.50;99.90;;;;;;5030536;28;20448;-84
2021/07/11 01:48:10;;;;;;;1.30;1.00;;;19.50;99.90;;;;;;5034971;28;20854;-84
2021/07/11 01:50:38;;;;;;;1.30;1.00;;;19.60;99.90;;;;;;5033446;28;20456;-84
2021/07/11 01:53:07;;;;;;;1.60;1.50;;;19.60;99.90;;;;;;5033472;28;20498;-84
2021/07/11 01:55:35;;;;;;;1.63;1.20;;;19.60;99.90;;;;;;5031970;28;20467;-84
2021/07/11 01:58:05;;;;;;;1.47;0.97;;;19.50;99.90;;;;;;5021446;28;20458;-83
2021/07/11 02:00:33;;;;;;;1.20;1.10;;;19.60;99.90;;;;;;5030054;28;20452;-84
2021/07/11 02:03:02;;;;;;;1.80;1.00;;;19.60;99.90;;;;;;5021258;28;20480;-83
2021/07/11 02:05:30;;;;;;;1.10;1.00;;;19.70;99.90;;;;;;5043053;28;20483;-84
2021/07/11 02:07:58;;;;;;;1.10;1.00;;;19.70;99.90;;;;;;5048769;28;20449;-83
2021/07/11 02:10:28;;;;;;;1.10;1.10;;;19.70;99.90;;;;;;5034459;28;20447;-84
2021/07/11 02:13:02;;;;;;;1.27;1.17;;;19.70;99.90;;;;;;5033921;28;20461;-83
2021/07/11 02:15:34;;;;;;;1.67;1.57;;;19.70;99.90;;;;;;5032373;28;20524;-84
2021/07/11 02:18:03;;;;;;;1.30;1.20;;;19.70;99.90;;;;;;5033655;28;20441;-83
2021/07/11 02:20:32;;;;;;;1.80;1.33;;;19.60;99.90;;;;;;5032991;28;20856;-82
2021/07/11 02:23:01;;;;;;;1.20;1.10;;;19.60;99.90;;;;;;5034968;28;20503;-87
2021/07/11 02:25:30;;;;;;;1.30;1.10;;;19.40;99.90;;;;;;5033024;28;20559;-83
2021/07/11 02:27:59;;;;;;;0.87;0.83;;;19.40;1.00;;;;;;5035291;28;20444;-82
2021/07/11 02:30:39;;;;;;;1.27;1.17;;;19.40;1.00;;;;;;5030970;28;20436;-83
2021/07/11 02:33:13;;;;;;;0.83;0.83;;;19.30;69.10;;;;;;5034952;28;20513;-85
2021/07/11 02:35:45;;;;;;;1.00;0.90;;;19.20;99.90;;;;;;5033121;28;20455;-83
2021/07/11 02:38:16;;;;;;;0.90;0.80;;;19.20;1.00;;;;;;5066101;28;20451;-84
2021/07/11 02:40:46;;;;;;;1.00;1.00;;;19.20;99.90;;;;;;5032067;28;20561;-84
2021/07/11 02:43:16;;;;;;;1.30;1.20;;;19.20;99.90;;;;;;5032589;28;21006;-84
2021/07/11 02:45:46;;;;;;;1.00;0.90;;;19.20;99.90;;;;;;5031621;28;20452;-84
2021/07/11 02:48:16;;;;;;;1.23;0.90;;;19.10;1.00;;;;;;5026769;28;20448;-83
2021/07/11 02:50:46;;;;;;;1.03;1.00;;;19.00;1.00;;;;;;5014397;28;20434;-82
2021/07/11 02:53:19;;;;;;;1.00;1.00;;;18.90;99.90;;;;;;5014320;28;20508;-83
2021/07/11 02:55:52;;;;;;;1.03;1.03;;;18.80;99.90;;;;;;5031477;28;20459;-83
2021/07/11 02:58:24;;;;;;;1.03;0.97;;;18.90;99.90;;;;;;5030649;28;20464;-83
2021/07/11 03:00:57;;;;;;;1.20;1.10;;;19.00;1.00;;;;;;5032475;28;20537;-84
2021/07/11 03:03:27;;;;;;;1.20;0.93;;;19.10;99.90;;;;;;5021640;28;20543;-84
2021/07/11 03:05:56;;;;;;;3.47;1.10;;;19.10;1.00;;;;;;5031642;28;20455;-84
2021/07/11 03:08:24;;;;;;;1.00;0.90;;;19.10;1.00;;;;;;5023633;28;20463;-85
2021/07/11 03:10:52;;;;;;;1.40;1.30;;;19.00;24.70;;;;;;5030294;28;20447;-84
2021/07/11 03:13:21;;;;;;;1.97;1.07;;;19.10;1.00;;;;;;5028708;28;20467;-84
2021/07/11 03:15:50;;;;;;;1.07;1.07;;;18.90;36.90;;;;;;5028485;28;20542;-84
2021/07/11 03:18:18;;;;;;;1.60;1.10;;;18.90;99.90;;;;;;5030502;28;20482;-85
2021/07/11 03:20:49;;;;;;;1.20;1.10;;;18.90;52.60;;;;;;5030479;28;20479;-84
2021/07/11 03:23:19;;;;;;;2.17;1.27;;;19.00;1.00;;;;;;5031491;28;20483;-84
2021/07/11 03:25:49;;;;;;;1.10;1.00;;;19.10;1.00;;;;;;5032034;28;20452;-84
2021/07/11 03:28:19;;;;;;;1.70;1.33;;;19.10;1.00;;;;;;5014249;28;20451;-84
2021/07/11 03:30:50;;;;;;;1.87;1.30;;;19.00;1.00;;;;;;5013417;28;20495;-84
2021/07/11 03:33:20;;;;;;;1.70;1.60;;;19.00;1.00;;;;;;5030369;28;20464;-84
2021/07/11 03:35:54;;;;;;;1.07;0.97;;;18.90;1.00;;;;;;5031330;28;20440;-83
2021/07/11 03:38:25;;;;;;;1.70;1.00;;;18.80;99.90;;;;;;5031964;28;20463;-86
2021/07/11 03:40:56;;;;;;;1.80;1.20;;;18.90;43.30;;;;;;5064147;28;20467;-86
2021/07/11 03:43:27;;;;;;;1.27;1.17;;;19.00;1.00;;;;;;5023574;28;20487;-86
2021/07/11 03:46:00;;;;;;;1.40;1.30;;;18.70;99.90;;;;;;5029085;28;20461;-86
2021/07/11 03:48:32;;;;;;;1.10;1.00;;;18.70;99.90;;;;;;5032157;28;20982;-85
2021/07/11 03:51:03;;;;;;;1.40;1.10;;;18.80;99.90;;;;;;5030588;28;20507;-85
2021/07/11 03:53:33;;;;;;;1.50;1.40;;;18.90;1.00;;;;;;5030861;28;20475;-86
2021/07/11 03:56:03;;;;;;;1.20;1.10;;;18.90;1.00;;;;;;5046698;28;20463;-86
2021/07/11 03:58:41;;;;;;;1.40;1.17;;;19.00;1.00;;;;;;5030572;28;20944;-85
2021/07/11 04:01:09;;;;;;;1.17;1.07;;;19.10;1.00;;;;;;5031559;28;20463;-85
2021/07/11 04:03:42;;;;;;;1.60;1.50;;;19.20;99.90;;;;;;5026272;28;20535;-84
2021/07/11 04:06:14;;;;;;;1.67;1.40;;;19.10;99.90;;;;;;5025991;28;20463;-85
2021/07/11 04:08:44;;;;;;;0.90;0.90;;;19.10;99.90;;;;;;5019266;28;20480;-83
2021/07/11 04:11:12;;;;;;;1.40;1.30;;;19.10;99.90;;;;;;5032651;28;20491;-81
2021/07/11 04:13:41;;;;;;;2.07;1.13;;;19.10;99.90;;;;;;5029000;28;21011;-83
2021/07/11 04:16:10;;;;;;;2.73;1.40;;;19.10;99.90;;;;;;5029739;28;20447;-84
2021/07/11 04:18:41;;;;;;;3.20;1.23;;;19.00;1.00;;;;;;5031416;28;20448;-84
2021/07/11 04:21:12;;;;;;;1.50;1.23;;;19.00;99.90;;;;;;5015433;28;20455;-85
2021/07/11 04:23:42;;;;;;;2.43;1.70;;;19.00;1.00;;;;;;5045042;28;20483;-81
2021/07/11 04:26:12;;;;;;;1.60;1.10;;;18.90;1.00;;;;;;5047877;28;20865;-83
2021/07/11 04:28:43;;;;;;;3.20;1.30;;;18.90;1.00;;;;;;5032902;28;20519;-83
2021/07/11 04:31:12;;;;;;;1.40;1.30;;;18.90;1.00;;;;;;5033291;28;20824;-83
2021/07/11 04:33:41;;;;;;;1.23;1.17;;;18.90;78.50;;;;;;5047659;28;20559;-83
2021/07/11 04:36:09;;;;;;;1.60;0.90;;;18.80;1.00;;;;;;5047063;28;20444;-83
2021/07/11 04:38:39;;;;;;;1.33;1.23;;;18.90;99.90;;;;;;5032732;28;21017;-84
2021/07/11 04:41:09;;;;;;;1.30;1.20;;;19.00;24.80;;;;;;5031391;28;20457;-84
2021/07/11 04:43:37;;;;;;;1.20;1.10;;;19.00;1.00;;;;;;5031149;28;20547;-84
2021/07/11 04:46:06;;;;;;;1.30;1.20;;;18.90;1.00;;;;;;5024770;28;20516;-84
2021/07/11 04:48:34;;;;;;;1.33;1.23;;;18.90;1.00;;;;;;5031203;28;20787;-83
2021/07/11 04:51:02;;;;;;;3.17;2.23;;;18.90;14.20;;;;;;5017142;28;20475;-83
2021/07/11 04:53:30;;;;;;;2.40;1.10;;;18.90;99.90;;;;;;5023167;28;20456;-82
2021/07/11 04:56:00;;;;;;;1.10;1.00;;;18.90;1.00;;;;;;5032869;28;20449;-83
2021/07/11 04:58:28;;;;;;;2.80;1.50;;;19.00;1.00;;;;;;5032837;28;20505;-83
2021/07/11 05:00:56;;;;;;;1.13;1.03;;;19.00;1.00;;;;;;5024171;28;20448;-81
2021/07/11 05:03:24;;;;;;;3.63;1.30;;;19.10;1.00;;;;;;5033347;28;20832;-81
2021/07/11 05:05:52;;;;;;;2.40;1.43;;;19.20;1.00;;;;;;5027308;28;20461;-82
2021/07/11 05:08:20;;;;;;;1.40;1.30;;;19.20;99.90;;;;;;5031239;28;20452;-83
2021/07/11 05:10:48;;;;;;;2.33;1.13;;;19.30;99.90;;;;;;5033234;28;20870;-81
2021/07/11 05:13:18;;;;;;;1.27;1.17;;;19.30;99.90;;;;;;5032353;28;20503;-83
2021/07/11 05:15:47;;;;;;;1.17;1.07;;;19.30;97.00;;;;;;5029803;28;20457;-83
2021/07/11 05:18:15;;;;;;;2.27;1.03;;;19.40;1.00;;;;;;5031758;28;20618;-82
2021/07/11 05:20:43;;;;;;;1.43;1.20;;;19.30;1.00;;;;;;5032221;28;20818;-84
2021/07/11 05:23:11;;;;;;;1.63;1.20;;;19.30;1.00;;;;;;5030400;28;20453;-83
2021/07/11 05:25:39;;;;;;;3.77;1.40;;;19.30;99.90;;;;;;5030877;28;20542;-86
2021/07/11 05:28:08;;;;;;;1.43;1.10;;;19.40;73.80;;;;;;5031809;28;20456;-83
2021/07/11 05:30:37;;;;;;;1.43;1.20;;;19.40;13.80;;;;;;5030342;28;20512;-82
2021/07/11 05:33:05;;;;;;;1.20;1.10;;;19.40;1.00;;;;;;5030169;28;20838;-82
2021/07/11 05:35:33;;;;;;;1.33;1.23;;;19.50;1.00;;;;;;5028753;28;20473;-84
2021/07/11 05:38:01;;;;;;;1.43;1.33;;;19.50;1.00;;;;;;5031560;28;20951;-84
2021/07/11 05:40:30;;;;;;;1.30;1.20;;;19.50;1.00;;;;;;5031944;28;21224;-84
2021/07/11 05:42:58;;;;;;;1.77;1.30;;;19.50;1.00;;;;;;5031753;28;20450;-83
2021/07/11 05:45:26;;;;;;;1.20;1.10;;;19.50;1.00;;;;;;5030424;28;20484;-83
2021/07/11 05:47:56;;;;;;;1.53;1.43;;;19.50;1.00;;;;;;5025895;28;20544;-82
2021/07/11 05:50:24;;;;;;;1.30;1.20;;;19.50;99.90;;;;;;5012373;28;20846;-81
2021/07/11 05:52:52;;;;;;;2.13;1.40;;;19.50;99.90;;;;;;5027410;28;20506;-82
2021/07/11 05:55:20;;;;;;;1.70;1.20;;;19.50;1.00;;;;;;5030442;28;20468;-80
2021/07/11 05:57:48;;;;;;;1.57;1.47;;;19.50;1.00;;;;;;5027348;28;20461;-81
2021/07/11 06:00:18;;;;;;;2.07;1.70;;;19.60;99.90;;;;;;5029466;28;20452;-83
2021/07/11 06:02:46;;;;;;;2.40;1.17;;;19.60;1.00;;;;;;5027691;28;20471;-83
2021/07/11 06:05:15;;;;;;;1.70;1.37;;;19.60;99.90;;;;;;5026887;28;20537;-83
2021/07/11 06:07:43;;;;;;;1.87;1.17;;;19.60;99.90;;;;;;5030546;28;20451;-82
2021/07/11 06:10:12;;;;;;;1.20;1.10;;;19.50;99.90;;;;;;5029093;28;20581;-84
2021/07/11 06:12:40;;;;;;;1.40;1.30;;;19.50;99.90;;;;;;5027284;28;20484;-84
2021/07/11 06:15:09;;;;;;;1.33;1.23;;;19.60;1.00;;;;;;5018900;28;20477;-86
2021/07/11 06:17:38;;;;;;;1.30;1.20;;;19.70;99.90;;;;;;5021689;28;20452;-84
2021/07/11 06:20:09;;;;;;;1.83;1.30;;;19.70;99.90;;;;;;5025923;28;20480;-82
2021/07/11 06:22:39;;;;;;;1.30;1.20;;;19.80;99.90;;;;;;5029650;28;20457;-83
2021/07/11 06:25:08;;;;;;;2.30;1.23;;;19.80;99.90;;;;;;5029564;28;20488;-82
2021/07/11 06:27:37;;;;;;;3.63;1.53;;;19.90;99.90;;;;;;5027733;28;20993;-83
2021/07/11 06:30:09;;;;;;;2.70;1.80;;;19.90;99.90;;;;;;5029455;28;20456;-81
2021/07/11 06:32:37;;;;;;;1.27;1.17;;;20.00;55.40;;;;;;5020420;28;20452;-81
2021/07/11 06:35:08;;;;;;;2.30;1.30;;;20.10;62.60;;;;;;5028167;28;20468;-78
2021/07/11 06:37:36;;;;;;;1.60;1.10;;;20.10;60.40;;;;;;5027061;28;21010;-78
2021/07/11 06:40:07;;;;;;;1.67;1.30;;;20.20;15.20;;;;;;5026239;28;20457;-81
2021/07/11 06:42:36;;;;;;;2.23;1.30;;;20.30;5.30;;;;;;5029117;28;20514;-80
2021/07/11 06:45:05;;;;;;;2.60;1.27;;;20.30;1.00;;;;;;5023289;28;20480;-80
2021/07/11 06:47:33;;;;;;;1.80;1.30;;;20.40;1.00;;;;;;5027064;28;20456;-81
2021/07/11 06:50:02;;;;;;;1.23;1.13;;;20.50;1.00;;;;;;5035085;28;20510;-81
2021/07/11 06:52:30;;;;;;;1.20;1.10;;;20.50;1.00;;;;;;5032437;28;20531;-82
2021/07/11 06:54:58;;;;;;;1.07;1.07;;;20.50;1.00;;;;;;5026754;28;20464;-82
2021/07/11 06:57:28;;;;;;;1.33;1.17;;;20.60;1.00;;;;;;5031711;28;20868;-81
2021/07/11 06:59:56;;;;;;;1.00;0.90;;;20.70;1.00;;;;;;5049115;28;20968;-83
2021/07/11 07:02:24;;;;;;;1.20;1.10;;;20.80;1.00;;;;;;5032093;28;20463;-81
2021/07/11 07:04:53;;;;;;;1.17;1.07;;;21.00;1.00;;;;;;5032433;28;20472;-82
2021/07/11 07:07:22;;;;;;;1.30;1.20;;;21.10;1.00;;;;;;5029826;28;20536;-82
2021/07/11 07:09:50;;;;;;;1.27;0.93;;;21.30;1.00;;;;;;5032480;28;20444;-82
2021/07/11 07:12:18;;;;;;;1.40;1.30;;;21.40;1.00;;;;;;5047530;28;20460;-81
2021/07/11 07:14:47;;;;;;;1.30;1.20;;;21.60;1.00;;;;;;5031350;28;20459;-82
2021/07/11 07:17:16;;;;;;;1.30;1.20;;;21.50;1.00;;;;;;5026675;28;20463;-82
2021/07/11 07:19:44;;;;;;;1.10;1.00;;;21.50;1.00;;;;;;5027488;28;20495;-81
2021/07/11 07:22:12;;;;;;;1.30;1.20;;;21.50;1.00;;;;;;5029220;28;20951;-81
2021/07/11 07:24:41;;;;;;;2.60;1.60;;;21.50;1.00;;;;;;5022764;28;20910;-81
2021/07/11 07:27:09;;;;;;;3.33;1.50;;;21.40;1.00;;;;;;5042873;28;20483;-79
2021/07/11 07:29:37;;;;;;;1.70;1.23;;;21.40;1.00;;;;;;5026237;28;20994;-79
2021/07/11 07:32:07;;;;;;;1.30;1.20;;;21.30;1.00;;;;;;5024884;28;20456;-80
2021/07/11 07:34:36;;;;;;;1.37;1.20;;;21.30;1.00;;;;;;5027157;28;20476;-82
2021/07/11 07:37:04;;;;;;;1.40;1.20;;;21.30;1.00;;;;;;5027123;28;20441;-80
2021/07/11 07:39:32;;;;;;;1.97;1.30;;;21.30;1.00;;;;;;5023019;28;20484;-84
2021/07/11 07:42:01;;;;;;;3.63;1.37;;;21.30;1.00;;;;;;5024080;28;20445;-78
2021/07/11 07:44:30;;;;;;;1.40;1.30;;;21.40;1.00;;;;;;5025629;28;20456;-76
2021/07/11 07:46:58;;;;;;;2.23;1.30;;;21.40;1.00;;;;;;5024872;28;20473;-78
2021/07/11 07:49:28;;;;;;;2.07;1.87;;;21.50;1.00;;;;;;5027169;28;20460;-79
2021/07/11 07:51:56;;;;;;;2.00;1.20;;;21.50;1.00;;;;;;5023594;28;20470;-80
2021/07/11 07:54:24;;;;;;;1.40;1.10;;;21.60;1.00;;;;;;5025278;28;20465;-79
2021/07/11 07:56:52;;;;;;;1.33;1.23;;;21.60;1.00;;;;;;5013224;28;20460;-79
2021/07/11 07:59:21;;;;;;;3.43;1.50;;;21.70;1.00;;;;;;5026662;28;20473;-80
2021/07/11 08:01:49;;;;;;;1.40;1.30;;;21.70;1.00;;;;;;5025283;28;20461;-76
2021/07/11 08:04:20;;;;;;;1.97;1.20;;;21.80;1.00;;;;;;5030194;28;20477;-79
2021/07/11 08:06:50;;;;;;;1.80;1.30;;;21.80;1.00;;;;;;5030525;28;20580;-79
2021/07/11 08:09:18;;;;;;;1.70;1.30;;;21.80;1.00;;;;;;5031927;28;20456;-79
2021/07/11 08:11:46;;;;;;;1.10;1.00;;;21.80;1.00;;;;;;5027372;28;20446;-79
2021/07/11 08:14:15;;;;;;;1.20;1.10;;;21.80;1.00;;;;;;5015424;28;20477;-80
2021/07/11 08:16:43;;;;;;;1.20;1.10;;;21.70;99.90;;;;;;5028079;28;20448;-79
2021/07/11 08:19:12;;;;;;;1.40;1.00;;;21.70;99.90;;;;;;5026277;28;20449;-79
2021/07/11 08:21:40;;;;;;;1.47;1.30;;;21.70;99.90;;;;;;5023764;28;20515;-82
2021/07/11 08:24:09;;;;;;;1.40;1.30;;;21.60;99.90;;;;;;5029395;28;20464;-81
2021/07/11 08:26:37;;;;;;;1.57;1.30;;;21.60;99.90;;;;;;5025415;28;20465;-82
2021/07/11 08:29:06;;;;;;;1.20;1.10;;;21.60;99.90;;;;;;5026101;28;20463;-81
2021/07/11 08:31:34;;;;;;;1.17;1.10;;;21.50;99.90;;;;;;5029680;28;20544;-81
2021/07/11 08:34:04;;;;;;;1.27;1.17;;;21.50;99.90;;;;;;5027682;28;20477;-82
2021/07/11 08:36:32;;;;;;;1.27;1.10;;;21.50;99.90;;;;;;5029498;28;20445;-82
2021/07/11 08:39:01;;;;;;;2.07;1.20;;;21.40;99.90;;;;;;5048474;28;20495;-82
2021/07/11 08:41:31;;;;;;;1.77;1.17;;;21.40;1.00;;;;;;5027679;28;20450;-83
2021/07/11 08:43:59;;;;;;;1.63;1.20;;;21.40;99.90;;;;;;5032493;28;20477;-82
2021/07/11 08:46:27;;;;;;;1.30;1.20;;;21.40;1.00;;;;;;5030476;28;20997;-82
2021/07/11 08:48:55;;;;;;;1.50;1.40;;;21.40;1.00;;;;;;5028242;28;20960;-82
2021/07/11 08:51:23;;;;;;;1.17;1.10;;;21.40;1.00;;;;;;5032364;28;20457;-82
2021/07/11 08:53:53;;;;;;;1.10;1.00;;;21.40;1.00;;;;;;5030776;28;20563;-83
2021/07/11 08:56:23;;;;;;;1.50;1.10;;;21.40;1.00;;;;;;5031156;28;20452;-82
2021/07/11 08:58:54;;;;;;;1.70;1.33;;;21.40;99.90;;;;;;5031939;28;20454;-83
2021/07/11 09:01:24;;;;;;;1.17;1.07;;;21.40;99.90;;;;;;5031467;28;20459;-82
2021/07/11 09:04:04;;;;;;;1.33;1.03;;;21.40;99.90;;;;;;5031666;28;21026;-82
2021/07/11 09:06:45;;;;;;;0.97;0.93;;;21.40;99.90;;;;;;5032098;28;21321;-82
2021/07/11 09:09:22;;;;;;;0.90;0.90;;;21.40;99.90;;;;;;5030098;28;20453;-83
2021/07/11 09:11:52;;;;;;;1.43;1.10;;;21.50;99.90;;;;;;5031669;28;20462;-80
2021/07/11 09:14:23;;;;;;;1.20;1.10;;;21.50;99.90;;;;;;5030003;28;20481;-82
2021/07/11 09:16:52;;;;;;;1.20;1.10;;;21.50;99.90;;;;;;5030531;28;20445;-84
2021/07/11 09:19:22;;;;;;;1.47;1.20;;;21.50;99.90;;;;;;5031572;28;20467;-82
2021/07/11 09:21:53;;;;;;;1.53;1.10;;;21.50;99.90;;;;;;5031804;28;20441;-82
2021/07/11 09:24:21;;;;;;;1.80;1.10;;;21.60;99.90;;;;;;5030332;28;20472;-83
2021/07/11 09:26:50;;;;;;;1.60;1.50;;;21.50;99.90;;;;;;5030144;28;20932;-82
2021/07/11 09:29:31;;;;;;;1.73;1.50;;;21.60;99.90;;;;;;5031502;28;20441;-82
2021/07/11 09:32:00;;;;;;;1.23;1.13;;;21.60;99.90;;;;;;5031261;28;20449;-82
2021/07/11 09:34:30;;;;;;;2.53;1.50;;;21.70;99.90;;;;;;5031535;28;20480;-82
2021/07/11 09:37:16;;;;;;;1.70;1.23;;;21.80;99.90;;;;;;5031534;28;20425;-82
2021/07/11 09:39:53;;;;;;;1.17;1.07;;;21.80;99.90;;;;;;5031477;28;20548;-82
2021/07/11 09:42:26;;;;;;;1.40;1.00;;;21.90;99.90;;;;;;5021513;28;20481;-83
2021/07/11 09:44:57;;;;;;;1.90;1.20;;;21.90;99.90;;;;;;5030305;28;21089;-82
2021/07/11 09:47:27;;;;;;;2.37;1.10;;;21.90;99.90;;;;;;5025817;28;20469;-82
2021/07/11 09:50:07;;;;;;;1.43;1.33;;;22.00;99.90;;;;;;5030420;28;20457;-82
2021/07/11 09:52:36;;;;;;;0.80;0.80;;;22.00;99.90;;;;;;5029985;28;20483;-82
2021/07/11 09:55:10;;;;;;;1.47;1.17;;;22.10;99.90;;;;;;5029560;28;20536;-82
2021/07/11 09:57:40;;;;;;;1.20;1.10;;;22.10;99.90;;;;;;5031156;28;20443;-83
2021/07/11 10:00:22;;;;;;;1.20;1.10;;;22.20;99.90;;;;;;5027327;28;20484;-83
2021/07/11 10:02:54;;;;;;;1.70;1.07;;;22.20;99.90;;;;;;5030440;28;20506;-80
2021/07/11 10:05:23;;;;;;;1.40;1.30;;;22.20;99.90;;;;;;5030542;28;20472;-82
2021/07/11 10:07:52;;;;;;;2.00;1.27;;;22.20;99.90;;;;;;5017348;28;20524;-83
2021/07/11 10:10:23;;;;;;;3.20;2.90;;;22.20;99.90;;;;;;5029442;28;20449;-81
2021/07/11 10:12:52;;;;;;;1.13;1.00;;;22.10;99.90;;;;;;5030805;28;20474;-83
2021/07/11 10:15:24;;;;;;;1.30;1.20;;;22.10;99.90;;;;;;5029357;28;20515;-82
2021/07/11 10:17:55;;;;;;;1.30;1.00;;;22.00;99.90;;;;;;5029921;28;20956;-82
2021/07/11 10:20:30;;;;;;;1.00;1.00;;;22.00;99.90;;;;;;5030352;28;20891;-82
2021/07/11 10:22:58;;;;;;;1.00;1.00;;;22.00;99.90;;;;;;5027812;28;20956;-83
2021/07/11 10:25:29;;;;;;;1.20;1.10;;;22.00;99.90;;;;;;5028273;28;20484;-82
2021/07/11 10:28:12;;;;;;;1.30;1.17;;;22.00;99.90;;;;;;5030161;28;20473;-83
2021/07/11 10:30:43;;;;;;;2.27;1.37;;;22.00;99.90;;;;;;5027483;28;20546;-82
2021/07/11 10:33:13;;;;;;;10.83;1.97;;;22.00;99.90;;;;;;5029572;28;20452;-80
2021/07/11 10:35:53;;;;;;;6.73;1.63;;;21.90;99.90;;;;;;5030471;28;20449;-83
2021/07/11 10:38:29;;;;;;;2.47;1.67;;;21.80;99.90;;;;;;5030229;28;20835;-83
2021/07/11 10:41:10;;;;;;;1.93;1.80;;;21.80;99.90;;;;;;5030332;28;20433;-82
2021/07/11 10:43:39;;;;;;;1.33;1.23;;;21.80;99.90;;;;;;5029949;28;20835;-82
2021/07/11 10:46:08;;;;;;;1.40;1.30;;;21.80;99.90;;;;;;5027535;28;20440;-83
2021/07/11 10:48:37;;;;;;;1.50;1.30;;;21.80;99.90;;;;;;5026990;28;21062;-82
2021/07/11 10:51:18;;;;;;;1.40;1.30;;;21.80;99.90;;;;;;5029679;28;20460;-82
2021/07/11 10:53:46;;;;;;;1.10;1.10;;;21.80;99.90;;;;;;5024083;28;20889;-83
2021/07/11 10:56:20;;;;;;;1.80;1.47;;;21.80;99.90;;;;;;5029124;28;20541;-82
2021/07/11 10:58:49;;;;;;;1.47;1.37;;;21.80;99.90;;;;;;5029698;28;20440;-80
2021/07/11 11:01:21;;;;;;;1.37;1.27;;;21.80;99.90;;;;;;5027579;28;20507;-82
2021/07/11 11:03:53;;;;;;;1.20;1.10;;;21.70;99.90;;;;;;5028596;28;20461;-81
2021/07/11 11:06:22;;;;;;;1.50;1.40;;;21.60;99.90;;;;;;5029557;28;20472;-82
2021/07/11 11:08:50;;;;;;;2.60;1.40;;;21.60;99.90;;;;;;5029469;28;20468;-81
2021/07/11 11:11:30;;;;;;;2.50;1.10;;;21.70;99.90;;;;;;5025925;28;20483;-82
2021/07/11 11:14:05;;;;;;;1.57;1.40;;;21.70;99.90;;;;;;5029407;28;20480;-82
2021/07/11 11:16:45;;;;;;;1.83;1.30;;;21.70;99.90;;;;;;5027660;28;20819;-81
2021/07/11 11:19:15;;;;;;;1.13;1.03;;;21.80;99.90;;;;;;5027106;28;20448;-82
2021/07/11 11:21:44;;;;;;;1.33;1.10;;;21.90;99.90;;;;;;5030339;28;20936;-82
2021/07/11 11:24:12;;;;;;;3.37;1.30;;;22.00;99.90;;;;;;5028525;28;20464;-81
2021/07/11 11:26:43;;;;;;;1.30;1.20;;;22.00;99.90;;;;;;5028801;28;20454;-82
2021/07/11 11:29:11;;;;;;;1.30;1.10;;;22.10;99.90;;;;;;5029420;28;20480;-82
2021/07/11 11:31:39;;;;;;;2.53;1.10;;;22.10;99.90;;;;;;5026825;28;21004;-82
2021/07/11 11:34:10;;;;;;;1.77;1.50;;;22.10;99.90;;;;;;5033472;28;20472;-81
2021/07/11 11:36:40;;;;;;;1.30;1.10;;;22.10;99.90;;;;;;5033702;28;20506;-82
2021/07/11 11:39:10;;;;;;;0.93;0.93;;;22.10;99.90;;;;;;5032615;28;20497;-81
2021/07/11 11:41:38;;;;;;;0.83;0.83;;;22.00;99.90;;;;;;5049126;28;20505;-82
2021/07/11 11:44:12;;;;;;;1.33;1.23;;;22.00;99.90;;;;;;5033066;28;20500;-82
2021/07/11 11:46:42;;;;;;;1.33;1.23;;;22.00;99.90;;;;;;5029821;28;20462;-82
2021/07/11 11:49:13;;;;;;;2.67;1.20;;;22.10;99.90;;;;;;5030585;28;20561;-82
2021/07/11 11:51:46;;;;;;;1.47;1.23;;;22.10;99.90;;;;;;5033675;28;20441;-82
2021/07/11 11:54:26;;;;;;;1.33;1.23;;;22.10;99.90;;;;;;5032431;28;20465;-82
2021/07/11 11:56:55;;;;;;;0.90;0.90;;;22.10;99.90;;;;;;5032871;28;20985;-83
2021/07/11 11:59:24;;;;;;;0.70;0.70;;;22.10;99.90;;;;;;5033457;28;20451;-82
2021/07/11 12:01:57;;;;;;;0.83;0.83;;;22.10;99.90;;;;;;5031476;28;20469;-81
2021/07/11 12:04:27;;;;;;;0.87;0.80;;;22.10;99.90;;;;;;5016160;28;20515;-82
2021/07/11 12:06:56;;;;;;;1.50;1.40;;;22.10;99.90;;;;;;5032792;28;20445;-82
2021/07/11 12:09:26;;;;;;;2.00;1.30;;;21.90;99.90;;;;;;5031426;28;21041;-81
2021/07/11 12:11:58;;;;;;;1.67;1.30;;;21.70;99.90;;;;;;5032393;28;20442;-81
2021/07/11 12:14:31;;;;;;;1.57;1.20;;;21.80;99.90;;;;;;5031544;28;20516;-82
2021/07/11 12:17:03;;;;;;;1.33;1.23;;;21.90;99.90;;;;;;5027892;28;21017;-81
2021/07/11 12:19:44;;;;;;;1.07;0.97;;;22.00;99.90;;;;;;5030552;28;20458;-82
2021/07/11 12:22:17;;;;;;;1.20;1.10;;;22.20;99.90;;;;;;5031292;28;20483;-82
2021/07/11 12:24:48;;;;;;;1.40;1.30;;;22.10;99.90;;;;;;5031044;28;21191;-82
2021/07/11 12:27:21;;;;;;;0.90;0.90;;;22.00;99.90;;;;;;5030286;28;20455;-82
2021/07/11 12:29:49;;;;;;;1.20;1.10;;;22.10;99.90;;;;;;5032757;28;20475;-81
2021/07/11 12:32:17;;;;;;;4.73;1.40;;;22.10;99.90;;;;;;5032256;28;20524;-81
2021/07/11 12:34:57;;;;;;;1.23;1.13;;;22.10;99.90;;;;;;5032354;28;20485;-82
2021/07/11 12:37:25;;;;;;;1.10;1.03;;;22.10;99.90;;;;;;5031979;28;20469;-82
2021/07/11 12:39:53;;;;;;;1.60;1.40;;;22.10;99.90;;;;;;5032569;28;20458;-81
2021/07/11 12:42:21;;;;;;;1.43;1.00;;;22.10;99.90;;;;;;5024348;28;20470;-82
2021/07/11 12:44:49;;;;;;;2.83;1.37;;;22.00;99.90;;;;;;5031670;28;21235;-81
2021/07/11 12:47:19;;;;;;;3.47;1.40;;;22.00;99.90;;;;;;5027564;28;20490;-82
2021/07/11 12:49:52;;;;;;;1.70;1.60;;;21.90;1.00;;;;;;5031901;28;20533;-82
2021/07/11 12:52:21;;;;;;;2.57;1.57;;;21.80;1.00;;;;;;5031126;28;20459;-82
2021/07/11 12:54:50;;;;;;;2.07;1.20;;;21.70;1.00;;;;;;5030792;28;20528;-80
2021/07/11 12:57:26;;;;;;;1.60;1.30;;;21.80;45.40;;;;;;5031819;28;20854;-82
2021/07/11 12:59:54;;;;;;;2.80;1.40;;;21.70;99.90;;;;;;5031407;28;20454;-82
2021/07/11 13:02:24;;;;;;;1.60;1.40;;;21.70;1.00;;;;;;5030541;28;20478;-82
2021/07/11 13:04:58;;;;;;;1.40;1.30;;;21.70;99.90;;;;;;5012324;28;20462;-82